NORTHERN NASSAU  -  Coastal Flood Statement Coastal Flood Statement     Rip Current Statement Rip Current Statement        NORTHERN QUEENS  -  Coastal Flood Statement Coastal Flood Statement     Rip Current Statement Rip Current Statement        SOUTHERN NASSAU  -  Coastal Flood Statement Coastal Flood Statement     Rip Current Statement Rip Current Statement        SOUTHERN QUEENS  -  Coastal Flood Statement Coastal Flood Statement     Rip Current Statement Rip Current Statement        NORTHEAST SUFFOLK  -  Rip Current Statement Rip Current Statement        NORTHWEST SUFFOLK  -  Rip Current Statement Rip Current Statement        SOUTHEAST SUFFOLK  -  Rip Current Statement Rip Current Statement        SOUTHWEST SUFFOLK  -  Rip Current Statement Rip Current Statement      

Active alerts

Northern Queens
  Details for Northern Queens Coastal Flood Statement  +1 additional alert
Southern Queens
  Details for Southern Queens Coastal Flood Statement  +1 additional alert
Northern Nassau
  Details for Northern Nassau Coastal Flood Statement  +1 additional alert
Southern Nassau
  Details for Southern Nassau Coastal Flood Statement  +1 additional alert
Northwest Suffolk
  Details for Northwest Suffolk Rip Current Statement
Southwest Suffolk
  Details for Southwest Suffolk Rip Current Statement
Northeast Suffolk
  Details for Northeast Suffolk Rip Current Statement
Southeast Suffolk
  Details for Southeast Suffolk Rip Current Statement


WXM80 ListenWXM80 Stop

You find our weather info also at:

UK Metoffice

WeatherCloud

Weather Underground

Northeastern Weather Network

AWEKAS

Citizen Weather Observer Program (CWOP)

HAMweather, WeatherForYou, PWS Weather


Weather Underground History page Text

Daily Summary for January 24, 2018 Units:  English    Metric   Both
« Previous Day
Next Day »
Daily Weekly Monthly Yearly Custom
  High: Low: Average:
Temperature: 42.5 °F 28.1 °F 37.5 °F
Dew Point: 34.1 °F 18.1 °F 26.9 °F
Humidity: 75 % 55 % 66 %
Wind Speed: 11.3 mph 1.2 mph 5.5 mph
Wind Gust: 21.0 mph - -
Wind:- - WNW
Pressure: 29.91 in 29.47 in -
Precipitation: 0.00 in    
Historical Graphs
 
 
Tabular Data for January 24, 2018
Time Temperature Dew Point Pressure Wind Wind Speed Wind Gust Humidity Rainfall Rate (Hourly)
00:02 42.1 °F 34.1 °F 29.47 in WSW 3.8 mph 8.1 mph 73 % 0.00 in
00:07 41.9 °F 33.9 °F 29.47 in SW 4.2 mph 8.0 mph 73 % 0.00 in
00:12 41.8 °F 33.4 °F 29.47 in SW 5.8 mph 12.7 mph 72 % 0.00 in
00:17 41.8 °F 33.8 °F 29.47 in WSW 2.6 mph 8.1 mph 73 % 0.00 in
00:22 41.7 °F 33.7 °F 29.47 in SW 5.9 mph 10.4 mph 73 % 0.00 in
00:27 41.6 °F 33.6 °F 29.48 in SW 5.2 mph 8.1 mph 73 % 0.00 in
00:32 41.5 °F 33.8 °F 29.48 in West 4.3 mph 8.1 mph 74 % 0.00 in
00:37 41.5 °F 33.8 °F 29.47 in SW 5.9 mph 12.0 mph 74 % 0.00 in
00:42 41.4 °F 33.7 °F 29.48 in WSW 4.9 mph 8.1 mph 74 % 0.00 in
00:48 41.3 °F 33.6 °F 29.47 in SW 3.5 mph 6.9 mph 74 % 0.00 in
00:53 41.3 °F 34.0 °F 29.47 in West 6.5 mph 10.4 mph 75 % 0.00 in
00:58 41.2 °F 33.5 °F 29.47 in WSW 4.1 mph 8.1 mph 74 % 0.00 in
01:03 41.1 °F 33.4 °F 29.47 in West 4.4 mph 9.2 mph 74 % 0.00 in
01:08 41.1 °F 33.4 °F 29.47 in WSW 2.4 mph 5.8 mph 74 % 0.00 in
01:13 41.0 °F 33.3 °F 29.47 in WSW 3.6 mph 7.0 mph 74 % 0.00 in
01:18 41.0 °F 33.3 °F 29.47 in SW 2.6 mph 8.1 mph 74 % 0.00 in
01:28 40.9 °F 33.2 °F 29.47 in SSW 4.0 mph 5.8 mph 74 % 0.00 in
01:33 40.9 °F 33.2 °F 29.47 in SSW 4.1 mph 5.8 mph 74 % 0.00 in
01:38 40.8 °F 33.2 °F 29.47 in SW 3.0 mph 5.0 mph 74 % 0.00 in
01:43 40.8 °F 33.2 °F 29.48 in SW 3.7 mph 6.9 mph 74 % 0.00 in
01:58 40.8 °F 33.2 °F 29.49 in SSW 4.8 mph 8.1 mph 74 % 0.00 in
02:08 40.9 °F 32.9 °F 29.49 in WSW 3.9 mph 10.0 mph 73 % 0.00 in
02:13 40.9 °F 32.9 °F 29.49 in SW 2.2 mph 9.2 mph 73 % 0.00 in
02:18 40.9 °F 32.9 °F 29.49 in SW 5.2 mph 8.1 mph 73 % 0.00 in
02:23 40.9 °F 32.9 °F 29.49 in WSW 4.3 mph 8.1 mph 73 % 0.00 in
02:28 41.0 °F 33.0 °F 29.49 in SW 4.5 mph 5.8 mph 73 % 0.00 in
02:33 41.0 °F 33.0 °F 29.49 in SW 5.0 mph 9.0 mph 73 % 0.00 in
02:38 40.9 °F 32.9 °F 29.49 in West 6.1 mph 13.0 mph 73 % 0.00 in
02:43 41.0 °F 33.0 °F 29.49 in WSW 5.5 mph 5.5 mph 73 % 0.00 in
02:49 41.0 °F 33.0 °F 29.49 in SW 5.8 mph 9.2 mph 73 % 0.00 in
02:54 41.0 °F 33.0 °F 29.50 in SW 4.8 mph 6.9 mph 73 % 0.00 in
02:59 41.0 °F 33.0 °F 29.49 in West 3.2 mph 8.1 mph 73 % 0.00 in
03:04 41.0 °F 33.0 °F 29.49 in WSW 2.9 mph 8.1 mph 73 % 0.00 in
03:09 41.0 °F 33.0 °F 29.49 in WSW 2.3 mph 5.8 mph 73 % 0.00 in
03:19 41.0 °F 33.0 °F 29.50 in SSW 4.3 mph 8.1 mph 73 % 0.00 in
03:24 41.0 °F 33.0 °F 29.50 in WSW 1.2 mph 4.0 mph 73 % 0.00 in
03:29 41.0 °F 33.0 °F 29.50 in SW 3.1 mph 4.6 mph 73 % 0.00 in
03:39 41.0 °F 33.0 °F 29.50 in WSW 3.7 mph 7.0 mph 73 % 0.00 in
03:44 41.1 °F 33.1 °F 29.50 in SSW 3.3 mph 10.0 mph 73 % 0.00 in
03:49 41.2 °F 33.2 °F 29.50 in WSW 2.9 mph 4.6 mph 73 % 0.00 in
03:54 41.4 °F 33.4 °F 29.50 in West 6.5 mph 11.5 mph 73 % 0.00 in
03:59 41.4 °F 33.0 °F 29.50 in WNW 1.8 mph 5.8 mph 72 % 0.00 in
04:04 41.5 °F 33.1 °F 29.50 in WSW 3.8 mph 8.1 mph 72 % 0.00 in
04:09 41.6 °F 33.2 °F 29.50 in WNW 2.3 mph 12.7 mph 72 % 0.00 in
04:14 41.7 °F 33.3 °F 29.51 in WSW 4.3 mph 11.5 mph 72 % 0.00 in
04:19 41.8 °F 33.4 °F 29.51 in SW 5.5 mph 8.1 mph 72 % 0.00 in
04:24 41.9 °F 33.5 °F 29.51 in WSW 3.6 mph 8.0 mph 72 % 0.00 in
04:29 42.0 °F 33.6 °F 29.51 in WSW 2.3 mph 3.5 mph 72 % 0.00 in
04:34 42.0 °F 33.6 °F 29.51 in SW 5.0 mph 8.1 mph 72 % 0.00 in
04:39 42.0 °F 33.6 °F 29.51 in SW 3.5 mph 8.0 mph 72 % 0.00 in
04:44 42.0 °F 33.6 °F 29.52 in SW 6.0 mph 9.2 mph 72 % 0.00 in
04:49 41.9 °F 33.5 °F 29.52 in SW 3.3 mph 6.9 mph 72 % 0.00 in
04:55 41.9 °F 33.5 °F 29.52 in WSW 2.2 mph 6.0 mph 72 % 0.00 in
05:00 41.9 °F 33.5 °F 29.52 in WSW 4.8 mph 6.9 mph 72 % 0.00 in
05:05 41.8 °F 33.8 °F 29.52 in WSW 4.9 mph 8.1 mph 73 % 0.00 in
05:10 41.9 °F 33.9 °F 29.53 in WSW 6.5 mph 11.5 mph 73 % 0.00 in
05:15 42.0 °F 34.0 °F 29.53 in West 2.1 mph 4.6 mph 73 % 0.00 in
05:20 42.0 °F 34.0 °F 29.53 in WNW 6.4 mph 13.0 mph 73 % 0.00 in
05:25 42.1 °F 33.7 °F 29.54 in WSW 1.6 mph 5.0 mph 72 % 0.00 in
05:30 42.2 °F 33.8 °F 29.54 in WSW 4.3 mph 8.1 mph 72 % 0.00 in
05:35 42.3 °F 33.9 °F 29.54 in WSW 6.2 mph 10.4 mph 72 % 0.00 in
05:40 42.4 °F 34.0 °F 29.54 in West 4.9 mph 9.2 mph 72 % 0.00 in
05:45 42.4 °F 33.7 °F 29.54 in WSW 6.5 mph 11.5 mph 71 % 0.00 in
05:50 42.4 °F 33.7 °F 29.55 in WNW 6.3 mph 8.1 mph 71 % 0.00 in
05:55 42.4 °F 33.3 °F 29.55 in SW 5.4 mph 11.0 mph 70 % 0.00 in
06:00 42.5 °F 33.4 °F 29.56 in NW 4.6 mph 11.0 mph 70 % 0.00 in
06:05 42.5 °F 33.4 °F 29.56 in WNW 3.8 mph 5.8 mph 70 % 0.00 in
06:10 42.5 °F 33.0 °F 29.56 in WNW 4.9 mph 11.5 mph 69 % 0.00 in
06:15 42.4 °F 32.9 °F 29.56 in WSW 5.4 mph 9.2 mph 69 % 0.00 in
06:20 42.4 °F 32.9 °F 29.56 in WSW 6.2 mph 10.4 mph 69 % 0.00 in
06:25 42.3 °F 32.8 °F 29.56 in WNW 10.8 mph 17.3 mph 69 % 0.00 in
06:30 42.3 °F 32.1 °F 29.57 in West 6.2 mph 11.5 mph 67 % 0.00 in
06:35 42.2 °F 31.6 °F 29.57 in West 7.8 mph 11.5 mph 66 % 0.00 in
06:40 42.0 °F 30.3 °F 29.58 in WNW 7.0 mph 17.3 mph 63 % 0.00 in
06:45 42.0 °F 30.7 °F 29.58 in West 10.2 mph 17.3 mph 64 % 0.00 in
06:50 41.9 °F 30.2 °F 29.58 in West 7.0 mph 21.0 mph 63 % 0.00 in
06:55 41.9 °F 30.2 °F 29.59 in West 9.0 mph 20.0 mph 63 % 0.00 in
07:01 41.8 °F 30.5 °F 29.58 in NW 6.2 mph 12.7 mph 64 % 0.00 in
07:06 41.6 °F 30.3 °F 29.60 in WSW 6.5 mph 11.5 mph 64 % 0.00 in
07:11 41.5 °F 30.2 °F 29.60 in West 5.2 mph 13.8 mph 64 % 0.00 in
07:16 41.4 °F 30.1 °F 29.60 in WNW 5.3 mph 11.0 mph 64 % 0.00 in
07:21 41.3 °F 30.0 °F 29.61 in NW 10.3 mph 17.3 mph 64 % 0.00 in
07:26 41.2 °F 29.9 °F 29.61 in West 8.8 mph 15.0 mph 64 % 0.00 in
07:31 41.1 °F 30.2 °F 29.61 in WSW 3.1 mph 9.2 mph 65 % 0.00 in
07:36 41.0 °F 30.1 °F 29.61 in NW 6.9 mph 11.5 mph 65 % 0.00 in
07:41 40.9 °F 30.4 °F 29.62 in WSW 4.2 mph 6.9 mph 66 % 0.00 in
07:46 40.9 °F 30.4 °F 29.62 in West 5.5 mph 10.4 mph 66 % 0.00 in
07:51 40.9 °F 30.4 °F 29.62 in West 6.5 mph 9.2 mph 66 % 0.00 in
07:56 40.9 °F 30.8 °F 29.63 in West 4.1 mph 10.4 mph 67 % 0.00 in
08:01 40.9 °F 30.8 °F 29.63 in NW 5.2 mph 7.0 mph 67 % 0.00 in
08:11 40.8 °F 31.1 °F 29.64 in WNW 2.6 mph 11.5 mph 68 % 0.00 in
08:16 40.8 °F 30.7 °F 29.64 in WNW 8.0 mph 17.3 mph 67 % 0.00 in
08:21 40.7 °F 30.6 °F 29.65 in West 6.5 mph 13.8 mph 67 % 0.00 in
08:26 40.6 °F 30.5 °F 29.64 in West 4.2 mph 11.5 mph 67 % 0.00 in
08:31 40.6 °F 30.9 °F 29.65 in NW 7.6 mph 9.2 mph 68 % 0.00 in
08:36 40.5 °F 30.4 °F 29.64 in West 5.7 mph 18.4 mph 67 % 0.00 in
08:41 40.4 °F 29.9 °F 29.65 in WSW 6.5 mph 12.0 mph 66 % 0.00 in
08:46 40.3 °F 30.2 °F 29.66 in NNW 8.3 mph 8.3 mph 67 % 0.00 in
08:52 40.3 °F 30.2 °F 29.66 in West 4.5 mph 16.1 mph 67 % 0.00 in
08:57 40.4 °F 30.3 °F 29.66 in West 7.0 mph 11.0 mph 67 % 0.00 in
09:02 40.6 °F 30.1 °F 29.66 in West 8.7 mph 13.0 mph 66 % 0.00 in
09:12 40.6 °F 30.1 °F 29.67 in WNW 6.1 mph 12.7 mph 66 % 0.00 in
09:17 40.5 °F 30.0 °F 29.67 in WNW 4.9 mph 15.0 mph 66 % 0.00 in
09:22 40.6 °F 30.1 °F 29.67 in NW 1.6 mph 4.6 mph 66 % 0.00 in
09:27 40.6 °F 30.1 °F 29.67 in NW 5.3 mph 9.2 mph 66 % 0.00 in
09:32 40.6 °F 30.1 °F 29.68 in WNW 5.1 mph 9.2 mph 66 % 0.00 in
09:37 40.5 °F 30.0 °F 29.68 in West 4.4 mph 10.4 mph 66 % 0.00 in
09:42 40.5 °F 30.0 °F 29.69 in WNW 6.2 mph 10.4 mph 66 % 0.00 in
09:47 40.6 °F 30.1 °F 29.69 in West 6.4 mph 11.5 mph 66 % 0.00 in
09:52 40.7 °F 30.6 °F 29.69 in WNW 6.2 mph 10.4 mph 67 % 0.00 in
09:57 40.7 °F 30.6 °F 29.69 in NW 3.6 mph 10.0 mph 67 % 0.00 in
10:02 40.6 °F 30.5 °F 29.70 in NNW 5.2 mph 7.0 mph 67 % 0.00 in
10:07 40.5 °F 30.4 °F 29.70 in West 5.6 mph 10.4 mph 67 % 0.00 in
10:17 40.1 °F 29.6 °F 29.71 in WNW 9.4 mph 15.0 mph 66 % 0.00 in
10:27 39.8 °F 30.1 °F 29.71 in WNW 7.4 mph 9.2 mph 68 % 0.00 in
10:32 39.7 °F 30.0 °F 29.71 in WNW 6.2 mph 10.4 mph 68 % 0.00 in
10:37 39.7 °F 30.0 °F 29.71 in WNW 8.1 mph 16.1 mph 68 % 0.00 in
10:47 40.0 °F 30.3 °F 29.70 in West 6.9 mph 11.0 mph 68 % 0.00 in
10:52 40.1 °F 29.6 °F 29.71 in WNW 7.0 mph 12.7 mph 66 % 0.00 in
11:03 40.5 °F 29.7 °F 29.70 in WNW 10.0 mph 18.4 mph 65 % 0.00 in
11:18 41.0 °F 29.0 °F 29.70 in NW 8.6 mph 15.0 mph 62 % 0.00 in
11:28 41.2 °F 29.5 °F 29.69 in NNW 10.2 mph 12.7 mph 63 % 0.00 in
11:33 41.1 °F 28.7 °F 29.69 in WNW 5.2 mph 11.0 mph 61 % 0.00 in
11:43 41.0 °F 29.0 °F 29.70 in WNW 4.5 mph 11.5 mph 62 % 0.00 in
11:48 40.9 °F 28.5 °F 29.69 in WNW 8.1 mph 16.1 mph 61 % 0.00 in
11:53 40.7 °F 28.3 °F 29.69 in WNW 10.3 mph 17.3 mph 61 % 0.00 in
11:58 40.6 °F 28.2 °F 29.68 in West 5.1 mph 12.7 mph 61 % 0.00 in
12:03 40.6 °F 27.8 °F 29.69 in WNW 9.3 mph 16.1 mph 60 % 0.00 in
12:08 40.4 °F 28.0 °F 29.69 in SSW 3.9 mph 15.0 mph 61 % 0.00 in
12:13 40.5 °F 28.1 °F 29.69 in WNW 5.4 mph 15.0 mph 61 % 0.00 in
12:18 40.6 °F 27.8 °F 29.69 in West 5.5 mph 13.0 mph 60 % 0.00 in
12:23 40.8 °F 28.0 °F 29.69 in NNW 6.2 mph 11.5 mph 60 % 0.00 in
12:28 40.9 °F 27.7 °F 29.68 in WNW 7.8 mph 19.6 mph 59 % 0.00 in
12:33 41.0 °F 27.3 °F 29.68 in WNW 3.8 mph 8.1 mph 58 % 0.00 in
12:48 41.2 °F 27.5 °F 29.68 in NW 8.4 mph 16.1 mph 58 % 0.00 in
12:54 41.2 °F 27.1 °F 29.69 in WNW 6.6 mph 17.0 mph 57 % 0.00 in
13:09 41.1 °F 27.4 °F 29.69 in SW 5.6 mph 15.0 mph 58 % 0.00 in
13:14 41.1 °F 27.0 °F 29.69 in WNW 4.8 mph 12.7 mph 57 % 0.00 in
13:19 41.0 °F 26.5 °F 29.69 in West 6.7 mph 16.1 mph 56 % 0.00 in
13:29 40.9 °F 26.8 °F 29.69 in WNW 7.7 mph 15.0 mph 57 % 0.00 in
13:34 40.9 °F 27.2 °F 29.69 in North 4.0 mph 9.2 mph 58 % 0.00 in
13:39 40.9 °F 26.8 °F 29.69 in West 8.3 mph 15.0 mph 57 % 0.00 in
13:44 40.7 °F 26.6 °F 29.69 in NW 9.3 mph 16.0 mph 57 % 0.00 in
13:49 40.6 °F 26.5 °F 29.69 in NW 8.8 mph 15.0 mph 57 % 0.00 in
13:54 40.5 °F 26.4 °F 29.69 in WNW 8.3 mph 12.7 mph 57 % 0.00 in
13:59 40.4 °F 26.4 °F 29.69 in NW 3.9 mph 10.4 mph 57 % 0.00 in
14:09 40.2 °F 25.3 °F 29.70 in WNW 9.2 mph 20.7 mph 55 % 0.00 in
14:14 40.0 °F 26.0 °F 29.70 in WNW 10.1 mph 18.4 mph 57 % 0.00 in
14:19 39.7 °F 26.1 °F 29.70 in NNW 7.6 mph 13.0 mph 58 % 0.00 in
14:29 39.4 °F 25.0 °F 29.71 in WNW 5.4 mph 15.0 mph 56 % 0.00 in
14:34 39.2 °F 25.2 °F 29.72 in WNW 9.6 mph 12.7 mph 57 % 0.00 in
14:44 38.6 °F 25.5 °F 29.73 in WNW 6.8 mph 17.3 mph 59 % 0.00 in
14:50 38.3 °F 24.8 °F 29.73 in WNW 5.8 mph 19.6 mph 58 % 0.00 in
15:00 37.8 °F 24.3 °F 29.73 in West 5.6 mph 11.5 mph 58 % 0.00 in
15:05 37.7 °F 23.8 °F 29.73 in West 11.3 mph 16.1 mph 57 % 0.00 in
15:10 37.5 °F 23.6 °F 29.74 in NW 7.7 mph 12.7 mph 57 % 0.00 in
15:20 37.2 °F 23.8 °F 29.74 in WNW 7.9 mph 15.0 mph 58 % 0.00 in
15:25 37.1 °F 23.3 °F 29.74 in NNW 6.9 mph 12.7 mph 57 % 0.00 in
15:35 36.8 °F 23.8 °F 29.74 in NNW 5.7 mph 13.8 mph 59 % 0.00 in
15:40 36.8 °F 23.8 °F 29.75 in West 7.9 mph 12.7 mph 59 % 0.00 in
15:45 36.6 °F 23.6 °F 29.75 in WNW 7.5 mph 12.7 mph 59 % 0.00 in
15:50 36.5 °F 22.7 °F 29.75 in WNW 5.6 mph 13.8 mph 57 % 0.00 in
15:55 36.5 °F 23.1 °F 29.76 in West 5.7 mph 9.2 mph 58 % 0.00 in
16:00 36.4 °F 23.0 °F 29.75 in West 7.3 mph 15.0 mph 58 % 0.00 in
16:05 36.3 °F 22.9 °F 29.76 in WNW 4.9 mph 11.5 mph 58 % 0.00 in
16:10 36.2 °F 22.4 °F 29.76 in WSW 7.4 mph 12.7 mph 57 % 0.00 in
16:15 36.1 °F 22.3 °F 29.76 in NNW 6.7 mph 12.7 mph 57 % 0.00 in
16:20 36.0 °F 22.6 °F 29.76 in West 4.0 mph 6.9 mph 58 % 0.00 in
16:25 35.8 °F 22.9 °F 29.77 in NW 3.6 mph 8.1 mph 59 % 0.00 in
16:30 35.7 °F 23.2 °F 29.77 in NW 2.9 mph 5.8 mph 60 % 0.00 in
16:35 35.6 °F 23.5 °F 29.77 in NW 5.6 mph 13.8 mph 61 % 0.00 in
16:40 35.4 °F 22.9 °F 29.77 in WNW 7.9 mph 17.0 mph 60 % 0.00 in
16:46 35.3 °F 22.8 °F 29.78 in WNW 7.5 mph 13.0 mph 60 % 0.00 in
16:51 35.2 °F 23.1 °F 29.78 in WNW 5.0 mph 9.0 mph 61 % 0.00 in
16:56 35.1 °F 23.0 °F 29.78 in WNW 3.0 mph 12.0 mph 61 % 0.00 in
17:01 35.0 °F 23.3 °F 29.78 in West 3.6 mph 9.2 mph 62 % 0.00 in
17:06 34.9 °F 22.8 °F 29.79 in NW 6.7 mph 13.8 mph 61 % 0.00 in
17:11 34.7 °F 23.0 °F 29.79 in WSW 4.3 mph 11.5 mph 62 % 0.00 in
17:16 34.6 °F 22.5 °F 29.79 in WNW 7.6 mph 13.0 mph 61 % 0.00 in
17:21 34.5 °F 22.4 °F 29.80 in NNW 5.0 mph 12.0 mph 61 % 0.00 in
17:26 34.4 °F 23.1 °F 29.80 in NW 6.2 mph 11.5 mph 63 % 0.00 in
17:31 34.3 °F 23.0 °F 29.80 in West 6.3 mph 12.7 mph 63 % 0.00 in
17:36 34.2 °F 22.9 °F 29.80 in WNW 6.4 mph 10.4 mph 63 % 0.00 in
17:41 34.1 °F 22.8 °F 29.80 in NW 4.4 mph 11.5 mph 63 % 0.00 in
17:46 34.0 °F 22.3 °F 29.81 in WNW 4.6 mph 9.0 mph 62 % 0.00 in
17:51 33.9 °F 22.2 °F 29.81 in WNW 5.5 mph 8.1 mph 62 % 0.00 in
17:56 33.7 °F 22.1 °F 29.81 in NW 8.0 mph 12.7 mph 62 % 0.00 in
18:01 33.7 °F 22.1 °F 29.81 in NW 3.8 mph 11.5 mph 62 % 0.00 in
18:06 33.6 °F 22.3 °F 29.82 in West 2.9 mph 11.5 mph 63 % 0.00 in
18:11 33.5 °F 21.9 °F 29.82 in NW 5.1 mph 11.5 mph 62 % 0.00 in
18:16 33.4 °F 22.1 °F 29.82 in WNW 6.9 mph 6.9 mph 63 % 0.00 in
18:21 33.4 °F 22.1 °F 29.82 in NW 5.0 mph 9.0 mph 63 % 0.00 in
18:26 33.3 °F 22.1 °F 29.82 in WNW 5.1 mph 11.5 mph 63 % 0.00 in
18:31 33.2 °F 21.6 °F 29.82 in WNW 7.5 mph 11.5 mph 62 % 0.00 in
18:36 33.2 °F 22.3 °F 29.82 in NW 6.0 mph 12.7 mph 64 % 0.00 in
18:42 33.1 °F 21.9 °F 29.82 in WNW 6.3 mph 10.0 mph 63 % 0.00 in
18:47 33.1 °F 21.9 °F 29.82 in WNW 4.8 mph 10.4 mph 63 % 0.00 in
18:52 33.0 °F 21.4 °F 29.82 in NW 5.2 mph 12.7 mph 62 % 0.00 in
18:57 32.9 °F 21.7 °F 29.83 in West 4.7 mph 14.0 mph 63 % 0.00 in
19:02 32.8 °F 21.2 °F 29.83 in NW 7.1 mph 12.7 mph 62 % 0.00 in
19:07 32.6 °F 21.0 °F 29.83 in NW 7.1 mph 17.3 mph 62 % 0.00 in
19:12 32.6 °F 21.0 °F 29.83 in WNW 6.8 mph 12.7 mph 62 % 0.00 in
19:17 32.4 °F 21.2 °F 29.82 in West 10.4 mph 18.4 mph 63 % 0.00 in
19:22 32.4 °F 21.2 °F 29.83 in North 3.3 mph 15.0 mph 63 % 0.00 in
19:27 32.3 °F 21.1 °F 29.83 in WNW 5.4 mph 11.5 mph 63 % 0.00 in
19:32 32.2 °F 21.0 °F 29.83 in NW 5.0 mph 12.0 mph 63 % 0.00 in
19:37 32.1 °F 20.9 °F 29.84 in NNW 6.6 mph 15.0 mph 63 % 0.00 in
19:42 32.0 °F 20.8 °F 29.84 in WNW 5.7 mph 10.4 mph 63 % 0.00 in
19:47 31.9 °F 21.5 °F 29.84 in NW 3.9 mph 6.9 mph 65 % 0.00 in
19:52 31.8 °F 21.0 °F 29.84 in WNW 5.3 mph 11.5 mph 64 % 0.00 in
19:57 31.7 °F 20.5 °F 29.84 in NW 4.7 mph 15.0 mph 63 % 0.00 in
20:02 31.7 °F 20.5 °F 29.84 in NNW 5.7 mph 9.2 mph 63 % 0.00 in
20:07 31.6 °F 20.4 °F 29.85 in NNW 6.1 mph 11.5 mph 63 % 0.00 in
20:12 31.5 °F 20.7 °F 29.85 in NNW 6.4 mph 10.4 mph 64 % 0.00 in
20:17 31.4 °F 20.2 °F 29.85 in North 6.2 mph 19.6 mph 63 % 0.00 in
20:22 31.4 °F 20.6 °F 29.85 in NW 6.3 mph 12.7 mph 64 % 0.00 in
20:27 31.3 °F 20.2 °F 29.85 in NW 6.8 mph 13.8 mph 63 % 0.00 in
20:32 31.2 °F 20.4 °F 29.85 in NW 6.3 mph 11.5 mph 64 % 0.00 in
20:37 31.1 °F 20.3 °F 29.85 in NW 6.8 mph 14.0 mph 64 % 0.00 in
20:43 31.0 °F 19.9 °F 29.85 in NW 8.1 mph 12.7 mph 63 % 0.00 in
20:48 30.9 °F 20.1 °F 29.86 in NW 5.2 mph 12.7 mph 64 % 0.00 in
20:53 30.8 °F 20.0 °F 29.86 in West 4.3 mph 12.7 mph 64 % 0.00 in
20:58 30.7 °F 20.0 °F 29.86 in NW 7.1 mph 15.0 mph 64 % 0.00 in
21:03 30.6 °F 19.9 °F 29.86 in WNW 8.7 mph 16.1 mph 64 % 0.00 in
21:08 30.5 °F 19.8 °F 29.86 in NW 4.6 mph 11.5 mph 64 % 0.00 in
21:13 30.5 °F 20.1 °F 29.86 in WNW 5.2 mph 11.5 mph 65 % 0.00 in
21:18 30.4 °F 19.7 °F 29.87 in NW 5.9 mph 11.5 mph 64 % 0.00 in
21:23 30.3 °F 19.6 °F 29.87 in NNW 5.0 mph 9.2 mph 64 % 0.00 in
21:28 30.3 °F 19.9 °F 29.87 in NW 3.8 mph 8.1 mph 65 % 0.00 in
21:33 30.2 °F 19.8 °F 29.88 in NW 6.2 mph 9.2 mph 65 % 0.00 in
21:38 30.1 °F 19.4 °F 29.88 in NNW 5.7 mph 12.7 mph 64 % 0.00 in
21:43 30.1 °F 19.4 °F 29.88 in NNW 6.6 mph 11.5 mph 64 % 0.00 in
21:48 30.0 °F 18.9 °F 29.88 in NW 7.1 mph 13.8 mph 63 % 0.00 in
21:53 29.9 °F 19.2 °F 29.88 in NNW 4.0 mph 11.5 mph 64 % 0.00 in
21:58 29.9 °F 19.2 °F 29.88 in NNW 6.7 mph 12.0 mph 64 % 0.00 in
22:03 29.8 °F 19.5 °F 29.88 in NW 3.3 mph 8.1 mph 65 % 0.00 in
22:08 29.8 °F 19.5 °F 29.89 in NNW 5.3 mph 10.4 mph 65 % 0.00 in
22:13 29.7 °F 19.4 °F 29.89 in NW 6.1 mph 8.1 mph 65 % 0.00 in
22:18 29.6 °F 19.3 °F 29.89 in WNW 4.6 mph 10.4 mph 65 % 0.00 in
22:23 29.6 °F 19.3 °F 29.89 in NW 4.5 mph 11.5 mph 65 % 0.00 in
22:28 29.5 °F 19.2 °F 29.89 in NNW 3.7 mph 9.2 mph 65 % 0.00 in
22:33 29.4 °F 18.7 °F 29.89 in WNW 7.6 mph 9.2 mph 64 % 0.00 in
22:38 29.3 °F 18.6 °F 29.90 in NW 8.7 mph 13.8 mph 64 % 0.00 in
22:43 29.3 °F 18.6 °F 29.90 in WNW 4.3 mph 8.1 mph 64 % 0.00 in
22:49 29.2 °F 18.5 °F 29.90 in WNW 2.5 mph 8.1 mph 64 % 0.00 in
22:54 29.1 °F 18.4 °F 29.90 in NW 4.3 mph 12.7 mph 64 % 0.00 in
22:59 29.0 °F 18.3 °F 29.90 in West 4.0 mph 9.2 mph 64 % 0.00 in
23:04 28.9 °F 18.2 °F 29.90 in NW 3.6 mph 7.0 mph 64 % 0.00 in
23:09 28.9 °F 18.2 °F 29.90 in North 2.2 mph 10.4 mph 64 % 0.00 in
23:14 28.8 °F 18.5 °F 29.90 in NW 2.7 mph 9.2 mph 65 % 0.00 in
23:19 28.7 °F 18.1 °F 29.90 in NNW 2.8 mph 10.4 mph 64 % 0.00 in
23:24 28.7 °F 18.8 °F 29.91 in West 3.8 mph 8.0 mph 66 % 0.00 in
23:29 28.6 °F 18.3 °F 29.90 in NW 3.2 mph 5.8 mph 65 % 0.00 in
23:34 28.5 °F 18.6 °F 29.90 in NNW 2.7 mph 8.1 mph 66 % 0.00 in
23:39 28.5 °F 18.6 °F 29.90 in NW 2.5 mph 5.0 mph 66 % 0.00 in
23:44 28.4 °F 18.5 °F 29.90 in NNW 5.2 mph 9.2 mph 66 % 0.00 in
23:49 28.3 °F 18.4 °F 29.90 in NW 4.1 mph 6.9 mph 66 % 0.00 in
23:54 28.2 °F 18.6 °F 29.90 in NNE 5.6 mph 10.4 mph 67 % 0.00 in
23:59 28.1 °F 19.2 °F 29.91 in North 3.8 mph 9.2 mph 69 % 0.00 in
Crab Meadow Weather
Compliments of Weather Underground - 2.75 mb

Script developed by  Jim McMurry - jmcmurry@mwt.net Adapted for the template by  Wim van der Kuil - Leuven-Template.eu

Astronomy: Our moon is moving away from the earth at about 3cm per year.